createdAt,value
2019-03-17T00:02:23.006Z,68.40
2019-03-17T00:04:57.223Z,68.65
2019-03-17T00:07:32.030Z,73.25
2019-03-17T00:10:08.858Z,69.82
2019-03-17T00:12:40.355Z,70.42
2019-03-17T00:15:13.838Z,68.10
2019-03-17T00:17:45.499Z,67.17
2019-03-17T00:20:20.163Z,60.00
2019-03-17T00:22:55.316Z,56.95
2019-03-17T00:25:28.744Z,57.60
2019-03-17T00:28:03.095Z,52.40
2019-03-17T00:30:34.855Z,58.20
2019-03-17T00:33:09.297Z,55.75
2019-03-17T00:35:44.141Z,55.88
2019-03-17T00:38:17.744Z,55.45
2019-03-17T00:40:49.120Z,52.05
2019-03-17T00:43:20.292Z,52.73
2019-03-17T00:45:53.340Z,47.45
2019-03-17T00:48:24.487Z,42.50
2019-03-17T00:50:56.936Z,40.58
2019-03-17T00:53:35.507Z,42.85
2019-03-17T00:56:07.910Z,36.58
2019-03-17T00:58:49.943Z,41.25
2019-03-17T01:01:17.970Z,49.18
2019-03-17T01:03:51.001Z,44.53
2019-03-17T01:06:23.505Z,50.03
2019-03-17T01:08:55.672Z,60.75
2019-03-17T01:11:26.791Z,69.85
2019-03-17T01:13:58.330Z,72.72
2019-03-17T01:16:34.094Z,68.00
2019-03-17T01:19:07.333Z,70.57
2019-03-17T01:21:41.442Z,72.10
2019-03-17T01:24:12.643Z,71.72
2019-03-17T01:26:43.928Z,75.20
2019-03-17T01:29:15.203Z,75.62
2019-03-17T01:31:46.373Z,70.00
2019-03-17T01:34:19.630Z,70.55
2019-03-17T01:36:50.920Z,66.72
2019-03-17T01:39:23.153Z,68.05
2019-03-17T01:41:55.977Z,68.95
2019-03-17T01:44:27.095Z,69.62
2019-03-17T01:46:58.358Z,71.70
2019-03-17T01:49:29.613Z,75.03
2019-03-17T01:52:00.833Z,68.95
2019-03-17T01:54:32.202Z,86.90
2019-03-17T01:57:04.461Z,86.30
2019-03-17T01:59:35.699Z,80.85
2019-03-17T02:02:06.841Z,77.50
2019-03-17T02:04:38.180Z,83.97
2019-03-17T02:07:11.483Z,84.97
2019-03-17T02:09:42.785Z,82.67
2019-03-17T02:12:14.125Z,87.90
2019-03-17T02:14:45.371Z,84.62
2019-03-17T02:17:16.662Z,75.12
2019-03-17T02:19:47.979Z,77.47
2019-03-17T02:22:22.086Z,67.58
2019-03-17T02:24:53.242Z,63.05
2019-03-17T02:27:24.313Z,63.70
2019-03-17T02:29:55.686Z,62.83
2019-03-17T02:32:27.140Z,54.73
2019-03-17T02:34:58.845Z,61.75
2019-03-17T02:37:30.037Z,56.88
2019-03-17T02:40:01.333Z,52.23
2019-03-17T02:42:32.480Z,49.63
2019-03-17T02:45:03.926Z,49.77
2019-03-17T02:47:35.280Z,47.43
2019-03-17T02:50:08.132Z,42.20
2019-03-17T02:52:39.307Z,41.95
2019-03-17T02:55:10.396Z,45.05
2019-03-17T02:57:41.890Z,44.15
2019-03-17T03:00:13.066Z,37.80
2019-03-17T03:02:44.304Z,34.80
2019-03-17T03:05:15.719Z,36.98
2019-03-17T03:07:46.892Z,31.75
2019-03-17T03:10:18.110Z,30.70
2019-03-17T03:12:49.449Z,31.25
2019-03-17T03:15:20.687Z,28.62
2019-03-17T03:17:51.922Z,26.37
2019-03-17T03:20:23.180Z,29.57
2019-03-17T03:22:54.428Z,25.97
2019-03-17T03:25:25.771Z,25.37
2019-03-17T03:27:57.176Z,24.77
2019-03-17T03:30:28.445Z,30.75
2019-03-17T03:32:59.816Z,43.25
2019-03-17T03:35:30.975Z,53.23
2019-03-17T03:38:02.267Z,54.08
2019-03-17T03:40:33.579Z,47.67
2019-03-17T03:43:06.755Z,51.90
2019-03-17T03:45:38.317Z,50.30
2019-03-17T03:48:09.503Z,41.63
2019-03-17T03:50:40.672Z,38.08
2019-03-17T03:53:12.032Z,34.25
2019-03-17T03:55:43.362Z,33.35
2019-03-17T03:58:15.665Z,38.28
2019-03-17T04:00:46.896Z,37.95
2019-03-17T04:03:18.117Z,38.65
2019-03-17T04:05:49.348Z,31.07
2019-03-17T04:08:20.675Z,33.67
2019-03-17T04:10:52.174Z,36.90
2019-03-17T04:13:23.312Z,33.00
2019-03-17T04:15:55.559Z,27.10
2019-03-17T04:18:26.733Z,28.32
2019-03-17T04:20:57.863Z,34.05
2019-03-17T04:23:29.471Z,38.17
2019-03-17T04:26:00.670Z,36.85
2019-03-17T04:28:31.954Z,33.95
2019-03-17T04:31:03.143Z,30.85
2019-03-17T04:33:34.420Z,39.48
2019-03-17T04:36:06.683Z,36.05
2019-03-17T04:38:37.991Z,29.80
2019-03-17T04:41:09.197Z,30.45
2019-03-17T04:43:40.420Z,26.42
2019-03-17T04:46:11.691Z,29.63
2019-03-17T04:48:42.916Z,24.05
2019-03-17T04:51:14.510Z,23.62
2019-03-17T04:53:45.653Z,19.07
2019-03-17T04:56:16.820Z,19.17
2019-03-17T04:58:48.232Z,21.35
2019-03-17T05:01:19.431Z,19.42
2019-03-17T05:03:50.596Z,17.02
2019-03-17T05:06:22.249Z,15.98
2019-03-17T05:08:55.281Z,15.38
2019-03-17T05:11:26.619Z,17.02
2019-03-17T05:14:03.491Z,15.30
2019-03-17T05:16:35.909Z,16.52
2019-03-17T05:19:07.378Z,15.08
2019-03-17T05:21:38.716Z,16.25
2019-03-17T05:24:09.996Z,16.20
2019-03-17T05:26:41.410Z,17.55
2019-03-17T05:29:15.137Z,16.02
2019-03-17T05:31:55.338Z,16.93
2019-03-17T05:34:26.546Z,18.52
2019-03-17T05:37:06.077Z,17.67
2019-03-17T05:39:30.865Z,16.73
2019-03-17T05:42:02.078Z,21.27
2019-03-17T05:44:33.247Z,17.50
2019-03-17T05:47:04.703Z,13.85
2019-03-17T05:49:36.215Z,17.60
2019-03-17T05:52:07.496Z,18.40
2019-03-17T05:54:38.843Z,14.98
2019-03-17T05:57:10.270Z,18.98
2019-03-17T05:59:41.515Z,17.77
2019-03-17T06:02:12.880Z,16.52
2019-03-17T06:04:44.374Z,19.80
2019-03-17T06:07:18.963Z,17.57
2019-03-17T06:09:49.287Z,16.65
2019-03-17T06:12:20.508Z,17.35
2019-03-17T06:14:51.570Z,15.28
2019-03-17T06:17:22.865Z,17.02
2019-03-17T06:19:54.218Z,14.47
2019-03-17T06:22:25.360Z,14.25
2019-03-17T06:24:56.637Z,15.68
2019-03-17T06:27:27.959Z,14.18
2019-03-17T06:29:59.258Z,15.70
2019-03-17T06:32:34.729Z,15.45
2019-03-17T06:35:06.370Z,15.93
2019-03-17T06:37:54.762Z,17.15
2019-03-17T06:40:26.281Z,16.52
2019-03-17T06:42:57.693Z,17.35
2019-03-17T06:45:30.653Z,16.97
2019-03-17T06:48:03.330Z,17.67
2019-03-17T06:50:34.705Z,17.98
2019-03-17T06:53:07.879Z,19.67
2019-03-17T06:55:40.336Z,20.52
2019-03-17T06:58:11.559Z,18.57
2019-03-17T07:00:42.652Z,19.20
2019-03-17T07:03:14.583Z,18.20
2019-03-17T07:05:47.526Z,15.83
2019-03-17T07:08:19.180Z,15.98
2019-03-17T07:10:51.636Z,15.75
2019-03-17T07:13:23.033Z,17.50
2019-03-17T07:15:54.693Z,15.90
2019-03-17T07:18:26.370Z,15.68
2019-03-17T07:20:57.875Z,18.10
2019-03-17T07:23:29.757Z,15.48
2019-03-17T07:26:02.802Z,17.20
2019-03-17T07:28:35.616Z,19.70
2019-03-17T07:31:12.379Z,16.82
2019-03-17T07:33:43.814Z,15.85
2019-03-17T07:36:17.948Z,15.93
2019-03-17T07:38:50.430Z,15.28
2019-03-17T07:41:22.041Z,14.15
2019-03-17T07:43:53.918Z,14.23
2019-03-17T07:46:25.850Z,12.70
2019-03-17T07:48:59.717Z,14.80
2019-03-17T07:51:33.634Z,14.43
2019-03-17T07:54:05.305Z,12.13
2019-03-17T07:59:40.946Z,11.20
2019-03-17T08:02:12.461Z,10.90
2019-03-17T08:04:46.295Z,10.88
2019-03-17T08:07:19.475Z,10.45
2019-03-17T08:09:52.961Z,11.70
2019-03-17T08:12:24.242Z,10.90
2019-03-17T08:14:57.738Z,13.48
2019-03-17T08:17:28.875Z,9.83
2019-03-17T08:20:00.753Z,9.95
2019-03-17T08:22:32.129Z,25.55
2019-03-17T08:25:04.148Z,24.07
2019-03-17T08:27:39.898Z,12.13
2019-03-17T08:30:16.743Z,10.18
2019-03-17T08:32:48.378Z,12.55
2019-03-17T08:35:20.342Z,10.60
2019-03-17T08:37:52.466Z,12.03
2019-03-17T08:40:23.636Z,11.15
2019-03-17T08:42:55.146Z,13.88
2019-03-17T08:45:28.204Z,10.25
2019-03-17T08:47:59.414Z,10.72
2019-03-17T08:50:31.049Z,15.45
2019-03-17T08:53:02.961Z,11.00
2019-03-17T08:55:34.298Z,11.83
2019-03-17T08:58:06.780Z,10.68
2019-03-17T09:00:38.165Z,11.53
2019-03-17T09:03:09.689Z,11.18
2019-03-17T09:05:42.067Z,12.63
2019-03-17T09:08:13.365Z,14.38
2019-03-17T09:10:44.574Z,14.53
2019-03-17T09:13:15.856Z,12.68
2019-03-17T09:15:47.179Z,12.13
2019-03-17T09:18:18.349Z,13.70
2019-03-17T09:20:49.762Z,15.03
2019-03-17T09:23:21.462Z,13.43
2019-03-17T09:25:52.626Z,12.68
2019-03-17T09:28:23.812Z,10.85
2019-03-17T09:30:55.205Z,12.00
2019-03-17T09:33:26.476Z,12.80
2019-03-17T09:35:57.778Z,17.20
2019-03-17T09:38:29.246Z,13.62
2019-03-17T09:41:00.424Z,15.58
2019-03-17T09:43:32.797Z,14.65
2019-03-17T09:46:04.265Z,11.10
2019-03-17T09:48:35.490Z,13.00
2019-03-17T09:51:07.243Z,10.08
2019-03-17T09:53:38.695Z,9.50
2019-03-17T09:56:10.186Z,9.68
2019-03-17T09:58:41.191Z,9.20
2019-03-17T10:01:12.161Z,9.20
2019-03-17T10:03:43.408Z,12.47
2019-03-17T10:06:14.779Z,10.43
2019-03-17T10:08:59.142Z,8.08
2019-03-17T10:11:19.861Z,7.75
2019-03-17T10:13:51.103Z,5.85
2019-03-17T10:16:27.042Z,7.12
2019-03-17T10:18:58.439Z,7.30
2019-03-17T10:21:37.778Z,6.97
2019-03-17T10:24:15.478Z,6.37
2019-03-17T10:26:49.875Z,8.45
2019-03-17T10:29:21.041Z,10.78
2019-03-17T10:31:52.618Z,13.50
2019-03-17T10:34:23.896Z,9.63
2019-03-17T10:36:55.183Z,8.05
2019-03-17T10:39:27.213Z,10.90
2019-03-17T10:41:58.375Z,7.12
2019-03-17T10:44:29.530Z,9.23
2019-03-17T10:47:01.633Z,11.60
2019-03-17T10:49:32.964Z,9.90
2019-03-17T10:52:04.157Z,7.30
2019-03-17T10:54:35.497Z,9.75
2019-03-17T10:57:06.708Z,9.03
2019-03-17T10:59:37.924Z,8.25
2019-03-17T11:02:09.150Z,6.80
2019-03-17T11:04:40.275Z,5.03
2019-03-17T11:07:11.459Z,3.00
2019-03-17T11:09:42.878Z,6.83
2019-03-17T11:12:13.981Z,7.12
2019-03-17T11:14:45.068Z,7.33
2019-03-17T11:17:16.155Z,18.25
2019-03-17T11:19:47.400Z,16.12
2019-03-17T11:22:22.097Z,10.13
2019-03-17T11:24:53.466Z,26.80
2019-03-17T11:27:25.065Z,7.42
2019-03-17T11:29:56.872Z,7.22
2019-03-17T11:32:28.359Z,5.50
2019-03-17T11:34:59.814Z,4.20
2019-03-17T11:37:31.321Z,6.22
2019-03-17T11:40:02.776Z,6.42
2019-03-17T11:42:34.128Z,4.45
2019-03-17T11:45:08.347Z,8.80
2019-03-17T11:47:40.050Z,5.05
2019-03-17T11:50:19.268Z,6.67
2019-03-17T11:52:51.076Z,6.00
2019-03-17T11:55:22.391Z,6.03
2019-03-17T11:57:56.022Z,5.33
2019-03-17T12:00:27.804Z,5.92
2019-03-17T12:02:59.227Z,7.47
2019-03-17T12:05:30.573Z,6.83
2019-03-17T12:08:05.353Z,8.85
2019-03-17T12:10:37.214Z,8.10
2019-03-17T12:13:10.791Z,9.05
2019-03-17T12:15:53.320Z,10.80
2019-03-17T12:18:25.790Z,14.38
2019-03-17T12:20:58.498Z,15.43
2019-03-17T12:23:30.171Z,14.20
2019-03-17T12:26:03.769Z,13.98
2019-03-17T12:28:37.118Z,13.93
2019-03-17T12:31:09.111Z,9.10
2019-03-17T12:33:41.031Z,7.80
2019-03-17T12:36:14.781Z,9.38
2019-03-17T12:38:50.893Z,5.10
2019-03-17T12:41:29.567Z,14.18
2019-03-17T12:44:11.922Z,6.95
2019-03-17T12:46:45.293Z,6.35
2019-03-17T12:49:17.669Z,7.20
2019-03-17T12:51:49.115Z,6.47
2019-03-17T12:54:21.096Z,6.87
2019-03-17T12:56:52.493Z,7.62
2019-03-17T12:59:24.088Z,7.95
2019-03-17T13:01:56.355Z,8.23
2019-03-17T13:04:28.270Z,8.23
2019-03-17T13:06:59.589Z,9.23
2019-03-17T13:09:30.867Z,8.60
2019-03-17T13:12:02.332Z,8.30
2019-03-17T13:14:33.514Z,10.45
2019-03-17T13:17:05.165Z,11.22
2019-03-17T13:19:36.438Z,9.50
2019-03-17T13:22:08.880Z,7.87
2019-03-17T13:24:41.775Z,7.53
2019-03-17T13:27:15.432Z,8.35
2019-03-17T13:29:46.733Z,9.30
2019-03-17T13:32:17.981Z,8.73
2019-03-17T13:34:49.227Z,6.80
2019-03-17T13:37:22.554Z,8.73
2019-03-17T13:39:53.746Z,8.35
2019-03-17T13:42:24.932Z,5.45
2019-03-17T13:44:59.010Z,7.30
2019-03-17T13:47:30.909Z,7.62
2019-03-17T13:50:02.540Z,8.78
2019-03-17T13:52:35.740Z,7.42
2019-03-17T13:55:07.152Z,5.37
2019-03-17T13:57:38.673Z,7.87
2019-03-17T14:00:13.460Z,7.70
2019-03-17T14:02:45.131Z,6.90
2019-03-17T14:05:16.547Z,10.32
2019-03-17T14:07:47.971Z,7.78
2019-03-17T14:10:19.563Z,7.35
2019-03-17T14:12:52.884Z,6.47
2019-03-17T14:15:24.298Z,7.33
2019-03-17T14:17:55.442Z,7.67
2019-03-17T14:20:26.486Z,6.95
2019-03-17T14:22:57.810Z,6.37
2019-03-17T14:25:36.394Z,7.95
2019-03-17T14:28:10.929Z,8.88
2019-03-17T14:30:44.898Z,5.42
2019-03-17T14:33:16.031Z,5.90
2019-03-17T14:35:47.156Z,10.38
2019-03-17T14:38:18.573Z,7.85
2019-03-17T14:40:53.890Z,6.60
2019-03-17T14:43:22.697Z,7.10
2019-03-17T14:45:53.943Z,6.35
2019-03-17T14:48:25.423Z,6.40
2019-03-17T14:50:59.322Z,6.95
2019-03-17T14:53:30.626Z,6.58
2019-03-17T14:56:01.826Z,6.67
2019-03-17T14:58:52.309Z,12.15
2019-03-17T15:01:20.871Z,9.23
2019-03-17T15:03:52.039Z,9.70
2019-03-17T15:06:24.371Z,10.60
2019-03-17T15:08:57.806Z,11.40
2019-03-17T15:11:45.456Z,9.63
2019-03-17T15:14:26.340Z,9.88
2019-03-17T15:16:58.799Z,10.68
2019-03-17T15:19:30.251Z,9.20
2019-03-17T15:22:02.381Z,10.53
2019-03-17T15:24:33.668Z,9.48
2019-03-17T15:27:04.967Z,10.88
2019-03-17T15:29:36.302Z,13.85
2019-03-17T15:32:08.618Z,8.13
2019-03-17T15:34:39.622Z,9.10
2019-03-17T15:37:10.741Z,8.03
2019-03-17T15:39:41.929Z,7.78
2019-03-17T15:42:12.990Z,10.13
2019-03-17T15:44:44.443Z,8.30
2019-03-17T15:47:15.629Z,10.30
2019-03-17T15:49:46.836Z,10.28
2019-03-17T15:52:18.085Z,10.72
2019-03-17T15:54:50.301Z,11.18
2019-03-17T15:57:22.423Z,10.32
2019-03-17T15:59:57.175Z,14.03
2019-03-17T16:02:28.553Z,13.90
2019-03-17T16:05:00.354Z,14.18
2019-03-17T16:07:41.807Z,12.40
2019-03-17T16:10:14.281Z,15.70
2019-03-17T16:12:45.723Z,12.15
2019-03-17T16:15:17.026Z,14.30
2019-03-17T16:17:48.425Z,13.25
2019-03-17T16:20:29.557Z,12.37
2019-03-17T16:23:10.254Z,14.15
2019-03-17T16:25:41.473Z,13.50
2019-03-17T16:28:12.722Z,12.93
2019-03-17T16:30:43.940Z,14.10
2019-03-17T16:33:15.437Z,13.00
2019-03-17T16:35:47.142Z,12.53
2019-03-17T16:38:18.471Z,12.43
2019-03-17T16:40:49.722Z,12.70
2019-03-17T16:43:22.533Z,13.40
2019-03-17T16:45:54.110Z,12.95
2019-03-17T16:48:25.522Z,14.73
2019-03-17T16:50:57.703Z,12.68
2019-03-17T16:53:29.759Z,13.10
2019-03-17T16:56:03.165Z,12.68
2019-03-17T16:58:34.761Z,9.88
2019-03-17T17:01:06.256Z,9.90
2019-03-17T17:03:38.538Z,10.30
2019-03-17T17:06:09.714Z,13.60
2019-03-17T17:08:41.361Z,10.95
2019-03-17T17:11:12.948Z,10.85
2019-03-17T17:13:44.326Z,12.88
2019-03-17T17:16:15.501Z,10.70
2019-03-17T17:18:47.050Z,10.72
2019-03-17T17:21:18.339Z,11.28
2019-03-17T17:23:49.572Z,15.25
2019-03-17T17:26:20.737Z,13.72
2019-03-17T17:28:53.286Z,13.25
2019-03-17T17:31:24.914Z,16.12
2019-03-17T17:33:58.696Z,16.50
2019-03-17T17:36:30.010Z,15.50
2019-03-17T17:39:01.341Z,15.80
2019-03-17T17:41:33.994Z,16.17
2019-03-17T17:44:05.270Z,17.70
2019-03-17T17:46:36.643Z,14.63
2019-03-17T17:49:09.877Z,19.02
2019-03-17T17:51:41.325Z,15.28
2019-03-17T17:54:12.623Z,15.88
2019-03-17T17:56:44.672Z,19.07
2019-03-17T17:59:16.186Z,16.80
2019-03-17T18:01:47.963Z,19.50
2019-03-17T18:04:19.241Z,20.12
2019-03-17T18:06:50.690Z,21.10
2019-03-17T18:09:21.959Z,21.80
2019-03-17T18:11:53.532Z,17.32
2019-03-17T18:14:24.841Z,19.67
2019-03-17T18:16:57.072Z,19.80
2019-03-17T18:19:29.859Z,18.52
2019-03-17T18:22:01.193Z,25.08
2019-03-17T18:24:41.812Z,29.32
2019-03-17T18:27:14.434Z,33.50
2019-03-17T18:29:45.763Z,32.35
2019-03-17T18:32:17.618Z,36.08
2019-03-17T18:34:50.604Z,33.30
2019-03-17T18:37:24.091Z,29.80
2019-03-17T18:39:57.946Z,25.08
2019-03-17T18:42:33.363Z,22.77
2019-03-17T18:45:04.404Z,27.20
2019-03-17T18:47:36.124Z,21.27
2019-03-17T18:50:19.390Z,18.85
2019-03-17T18:52:43.492Z,20.32
2019-03-17T18:55:15.382Z,21.82
2019-03-17T18:57:47.065Z,21.82
2019-03-17T19:00:21.596Z,22.48
2019-03-17T19:02:52.926Z,20.68
2019-03-17T19:05:25.344Z,21.20
2019-03-17T19:07:56.706Z,21.57
2019-03-17T19:10:28.210Z,21.15
2019-03-17T19:12:59.668Z,22.48
2019-03-17T19:15:31.299Z,21.65
2019-03-17T19:18:05.729Z,21.12
2019-03-17T19:20:36.958Z,19.05
2019-03-17T19:23:08.463Z,18.73
2019-03-17T19:25:39.814Z,22.22
2019-03-17T19:28:11.833Z,21.35
2019-03-17T19:30:44.155Z,18.15
2019-03-17T19:33:15.405Z,19.65
2019-03-17T19:35:48.281Z,20.35
2019-03-17T19:38:20.144Z,17.65
2019-03-17T19:40:51.774Z,19.77
2019-03-17T19:43:23.058Z,24.27
2019-03-17T19:45:54.304Z,18.32
2019-03-17T19:48:25.624Z,23.62
2019-03-17T19:50:56.912Z,24.57
2019-03-17T19:53:28.196Z,19.12
2019-03-17T19:55:59.714Z,25.88
2019-03-17T19:58:31.157Z,18.57
2019-03-17T20:01:05.619Z,20.55
2019-03-17T20:03:36.975Z,17.30
2019-03-17T20:06:10.552Z,20.30
2019-03-17T20:08:41.431Z,18.87
2019-03-17T20:11:13.036Z,21.97
2019-03-17T20:13:44.235Z,20.95
2019-03-17T20:16:15.501Z,20.37
2019-03-17T20:18:46.865Z,23.57
2019-03-17T20:21:18.190Z,18.87
2019-03-17T20:23:49.436Z,22.05
2019-03-17T20:26:20.640Z,21.57
2019-03-17T20:28:52.565Z,20.20
2019-03-17T20:31:23.989Z,25.12
2019-03-17T20:33:55.394Z,23.73
2019-03-17T20:36:26.916Z,24.30
2019-03-17T20:38:58.134Z,26.10
2019-03-17T20:41:29.435Z,24.70
2019-03-17T20:44:01.046Z,25.08
2019-03-17T20:46:32.624Z,28.77
2019-03-17T20:49:03.945Z,26.40
2019-03-17T20:51:35.470Z,25.20
2019-03-17T20:54:06.924Z,39.15
2019-03-17T20:56:38.226Z,31.97
2019-03-17T20:59:09.421Z,26.80
2019-03-17T21:01:40.990Z,31.25
2019-03-17T21:04:13.273Z,33.45
2019-03-17T21:06:45.034Z,34.90
2019-03-17T21:09:16.196Z,40.38
2019-03-17T21:11:47.772Z,48.60
2019-03-17T21:14:19.019Z,39.65
2019-03-17T21:16:50.194Z,48.83
2019-03-17T21:19:21.552Z,37.03
2019-03-17T21:21:52.913Z,36.15
2019-03-17T21:24:24.503Z,37.95
2019-03-17T21:26:55.866Z,35.43
2019-03-17T21:29:27.104Z,40.50
2019-03-17T21:31:58.288Z,37.78
2019-03-17T21:34:29.600Z,38.33
2019-03-17T21:37:00.813Z,51.80
2019-03-17T21:39:32.084Z,49.27
2019-03-17T21:42:05.485Z,51.68
2019-03-17T21:44:39.167Z,51.48
2019-03-17T21:47:15.840Z,50.85
2019-03-17T21:49:58.636Z,52.33
2019-03-17T21:52:32.963Z,49.10
2019-03-17T21:55:06.668Z,46.28
2019-03-17T21:57:43.320Z,50.25
2019-03-17T22:00:19.102Z,44.23
2019-03-17T22:02:58.845Z,47.43
2019-03-17T22:05:30.522Z,50.73
2019-03-17T22:08:07.413Z,54.25
2019-03-17T22:10:41.308Z,46.70
2019-03-17T22:13:13.116Z,50.05
2019-03-17T22:15:46.269Z,56.35
2019-03-17T22:18:18.750Z,58.68
2019-03-17T22:20:50.470Z,56.98
2019-03-17T22:23:22.322Z,64.80
2019-03-17T22:26:00.732Z,55.38
2019-03-17T22:28:34.739Z,59.45
2019-03-17T22:31:06.139Z,60.25
2019-03-17T22:33:37.413Z,67.60
2019-03-17T22:36:08.741Z,67.08
2019-03-17T22:38:40.031Z,65.32
2019-03-17T22:41:11.211Z,65.65
2019-03-17T22:43:44.363Z,66.40
2019-03-17T22:46:15.762Z,62.85
2019-03-17T22:48:48.041Z,62.60
2019-03-17T22:51:19.407Z,63.55
2019-03-17T22:53:51.005Z,61.70
2019-03-17T22:56:22.297Z,66.57
2019-03-17T22:58:53.638Z,64.12
2019-03-17T23:01:24.943Z,58.90
2019-03-17T23:03:57.308Z,59.88
2019-03-17T23:06:29.833Z,64.30
2019-03-17T23:09:01.201Z,66.20
2019-03-17T23:11:33.147Z,63.40
2019-03-17T23:14:05.930Z,72.00
2019-03-17T23:16:37.177Z,74.20
2019-03-17T23:19:08.434Z,76.20
2019-03-17T23:21:39.532Z,75.70
2019-03-17T23:24:10.829Z,75.22
2019-03-17T23:26:42.281Z,71.53
2019-03-17T23:29:13.696Z,78.35
2019-03-17T23:31:46.691Z,72.97
2019-03-17T23:34:18.395Z,70.75
2019-03-17T23:36:49.813Z,72.40
2019-03-17T23:39:21.165Z,71.87
2019-03-17T23:41:53.754Z,74.35
2019-03-17T23:44:25.199Z,76.40
2019-03-17T23:46:56.813Z,82.88
2019-03-17T23:49:28.979Z,73.35
2019-03-17T23:52:00.289Z,70.55
2019-03-17T23:54:31.619Z,66.92
2019-03-17T23:57:03.974Z,70.67
2019-03-17T23:59:35.488Z,71.60
